createdAt,value
2023-09-27T00:00:59.379Z,20.69
2023-09-27T00:03:26.189Z,20.42
2023-09-27T00:05:52.932Z,20.08
2023-09-27T00:08:20.426Z,19.93
2023-09-27T00:10:47.345Z,19.26
2023-09-27T00:13:14.046Z,19.66
2023-09-27T00:15:41.266Z,19.44
2023-09-27T00:18:10.668Z,19.99
2023-09-27T00:20:37.575Z,19.24
2023-09-27T00:23:04.615Z,14.87
2023-09-27T00:25:31.452Z,14.39
2023-09-27T00:27:58.125Z,14.68
2023-09-27T00:30:24.714Z,16.85
2023-09-27T00:32:51.438Z,17.28
2023-09-27T00:35:23.206Z,17.44
2023-09-27T00:37:51.660Z,17.87
2023-09-27T00:40:22.226Z,18.83
2023-09-27T00:42:49.463Z,17.75
2023-09-27T00:45:17.982Z,18.55
2023-09-27T00:47:47.453Z,18.95
2023-09-27T00:50:14.553Z,16.50
2023-09-27T00:52:42.954Z,17.21
2023-09-27T00:55:13.182Z,16.19
2023-09-27T00:57:41.228Z,16.74
2023-09-27T01:00:11.469Z,19.14
2023-09-27T01:02:40.214Z,17.26
2023-09-27T01:05:10.292Z,18.64
2023-09-27T01:07:39.799Z,18.49
2023-09-27T01:10:07.929Z,17.64
2023-09-27T01:12:34.938Z,17.01
2023-09-27T01:15:02.081Z,18.30
2023-09-27T01:17:29.110Z,19.69
2023-09-27T01:19:55.943Z,19.00
2023-09-27T01:22:22.538Z,20.01
2023-09-27T01:24:52.568Z,19.57
2023-09-27T01:27:21.005Z,17.47
2023-09-27T01:29:47.752Z,17.91
2023-09-27T01:32:14.453Z,19.08
2023-09-27T01:34:41.138Z,19.33
2023-09-27T01:37:09.844Z,19.39
2023-09-27T01:39:36.572Z,19.05
2023-09-27T01:42:03.269Z,19.52
2023-09-27T01:44:29.957Z,19.63
2023-09-27T01:46:56.627Z,19.06
2023-09-27T01:49:23.218Z,19.57
2023-09-27T01:51:50.471Z,19.20
2023-09-27T01:54:17.118Z,20.48
2023-09-27T01:56:43.728Z,18.74
2023-09-27T01:59:10.408Z,18.39
2023-09-27T02:01:37.203Z,18.17
2023-09-27T02:04:05.340Z,16.69
2023-09-27T02:06:32.344Z,14.24
2023-09-27T02:08:59.007Z,17.64
2023-09-27T02:11:26.799Z,18.42
2023-09-27T02:13:53.946Z,19.54
2023-09-27T02:16:20.819Z,19.54
2023-09-27T02:18:47.475Z,18.47
2023-09-27T02:21:14.549Z,18.69
2023-09-27T02:23:41.313Z,18.75
2023-09-27T02:26:08.036Z,19.71
2023-09-27T02:28:34.696Z,19.23
2023-09-27T02:31:01.425Z,18.22
2023-09-27T02:33:29.000Z,18.97
2023-09-27T02:35:56.293Z,18.70
2023-09-27T02:38:23.191Z,19.50
2023-09-27T02:40:50.015Z,18.89
2023-09-27T02:43:16.697Z,19.63
2023-09-27T02:45:43.913Z,18.51
2023-09-27T02:48:10.674Z,18.14
2023-09-27T02:50:37.660Z,18.23
2023-09-27T02:53:05.468Z,17.40
2023-09-27T02:55:32.186Z,16.75
2023-09-27T02:57:58.783Z,16.23
2023-09-27T03:00:27.800Z,17.33
2023-09-27T03:02:54.544Z,17.24
2023-09-27T03:05:21.484Z,17.86
2023-09-27T03:07:49.532Z,18.31
2023-09-27T03:10:17.065Z,17.42
2023-09-27T03:12:44.199Z,17.21
2023-09-27T03:15:13.279Z,17.11
2023-09-27T03:17:42.238Z,17.67
2023-09-27T03:20:17.345Z,17.31
2023-09-27T03:22:44.898Z,13.73
2023-09-27T03:25:11.656Z,12.20
2023-09-27T03:27:38.298Z,12.21
2023-09-27T03:30:08.430Z,12.20
2023-09-27T03:32:35.184Z,11.81
2023-09-27T03:35:01.950Z,11.54
2023-09-27T03:37:28.551Z,10.82
2023-09-27T03:39:56.892Z,11.44
2023-09-27T03:42:24.506Z,12.36
2023-09-27T03:44:51.584Z,12.19
2023-09-27T03:47:18.526Z,11.64
2023-09-27T03:49:45.216Z,11.07
2023-09-27T03:52:11.785Z,11.04
2023-09-27T03:54:38.429Z,11.36
2023-09-27T03:57:05.317Z,11.95
2023-09-27T03:59:32.010Z,11.70
2023-09-27T04:01:58.950Z,13.10
2023-09-27T04:04:25.741Z,13.14
2023-09-27T04:06:52.777Z,12.43
2023-09-27T04:09:19.332Z,12.70
2023-09-27T04:11:45.901Z,11.77
2023-09-27T04:14:12.818Z,11.59
2023-09-27T04:16:39.531Z,11.37
2023-09-27T04:19:06.101Z,12.17
2023-09-27T04:21:32.815Z,12.86
2023-09-27T04:24:00.882Z,13.32
2023-09-27T04:26:27.981Z,13.24
2023-09-27T04:28:55.374Z,13.58
2023-09-27T04:31:22.522Z,13.46
2023-09-27T04:33:49.402Z,13.34
2023-09-27T04:36:19.174Z,14.35
2023-09-27T04:38:47.060Z,14.88
2023-09-27T04:41:19.032Z,14.55
2023-09-27T04:43:45.800Z,12.46
2023-09-27T04:46:14.845Z,13.34
2023-09-27T04:48:41.580Z,12.65
2023-09-27T04:51:08.255Z,12.48
2023-09-27T04:53:38.188Z,11.59
2023-09-27T04:56:08.727Z,11.24
2023-09-27T04:58:38.405Z,9.02
2023-09-27T05:01:10.479Z,9.88
2023-09-27T05:03:37.289Z,10.73
2023-09-27T05:06:03.916Z,11.97
2023-09-27T05:08:30.932Z,12.02
2023-09-27T05:10:57.733Z,11.46
2023-09-27T05:13:24.651Z,11.23
2023-09-27T05:15:54.311Z,11.37
2023-09-27T05:18:22.300Z,11.91
2023-09-27T05:20:48.937Z,11.87
2023-09-27T05:23:16.034Z,12.07
2023-09-27T05:25:42.772Z,12.95
2023-09-27T05:28:10.319Z,12.19
2023-09-27T05:30:37.446Z,12.61
2023-09-27T05:33:07.577Z,12.93
2023-09-27T05:35:34.690Z,12.42
2023-09-27T05:38:01.664Z,12.45
2023-09-27T05:40:28.547Z,12.24
2023-09-27T05:42:55.203Z,11.87
2023-09-27T05:45:21.894Z,12.55
2023-09-27T05:47:48.590Z,12.98
2023-09-27T05:50:15.557Z,13.88
2023-09-27T05:52:47.214Z,14.46
2023-09-27T05:55:15.542Z,15.96
2023-09-27T05:57:42.279Z,17.39
2023-09-27T06:00:36.292Z,16.95
2023-09-27T06:03:03.143Z,18.84
2023-09-27T06:05:29.944Z,18.60
2023-09-27T06:07:56.564Z,18.39
2023-09-27T06:10:23.664Z,18.08
2023-09-27T06:12:50.322Z,18.11
2023-09-27T06:15:18.644Z,18.55
2023-09-27T06:17:45.538Z,18.83
2023-09-27T06:20:20.773Z,18.00
2023-09-27T06:22:51.539Z,18.05
2023-09-27T06:25:19.379Z,19.15
2023-09-27T06:27:46.436Z,19.87
2023-09-27T06:30:13.669Z,20.54
2023-09-27T06:32:40.688Z,20.54
2023-09-27T06:35:13.902Z,20.41
2023-09-27T06:37:45.956Z,21.27
2023-09-27T06:40:17.738Z,22.16
2023-09-27T06:42:45.422Z,21.38
2023-09-27T06:45:14.081Z,21.27
2023-09-27T06:47:46.974Z,20.45
2023-09-27T06:50:15.150Z,20.01
2023-09-27T06:52:41.994Z,20.46
2023-09-27T06:55:12.091Z,21.42
2023-09-27T06:57:42.171Z,21.86
2023-09-27T07:00:25.388Z,22.35
2023-09-27T07:02:53.594Z,22.00
2023-09-27T07:05:24.109Z,22.61
2023-09-27T07:07:51.973Z,22.44
2023-09-27T07:10:18.608Z,22.59
2023-09-27T07:12:45.318Z,22.82
2023-09-27T07:15:15.358Z,23.37
2023-09-27T07:17:44.796Z,23.73
2023-09-27T07:20:25.796Z,22.75
2023-09-27T07:22:53.407Z,23.18
2023-09-27T07:25:21.537Z,23.27
2023-09-27T07:27:48.927Z,23.43
2023-09-27T07:30:25.906Z,24.39
2023-09-27T07:32:54.851Z,23.07
2023-09-27T07:35:22.802Z,23.66
2023-09-27T07:37:49.488Z,24.01
2023-09-27T07:40:16.683Z,24.18
2023-09-27T07:42:44.652Z,25.19
2023-09-27T07:45:22.458Z,25.72
2023-09-27T07:47:54.219Z,27.04
2023-09-27T07:50:24.190Z,27.01
2023-09-27T07:52:50.930Z,27.25
2023-09-27T07:55:18.855Z,26.99
2023-09-27T07:57:46.852Z,27.93
2023-09-27T08:00:20.042Z,27.79
2023-09-27T08:02:47.295Z,28.09
2023-09-27T08:05:17.645Z,29.09
2023-09-27T08:07:47.709Z,28.65
2023-09-27T08:12:44.632Z,27.55
2023-09-27T08:15:13.770Z,27.20
2023-09-27T08:17:40.945Z,27.64
2023-09-27T08:20:10.855Z,26.84
2023-09-27T08:22:40.646Z,26.72
2023-09-27T08:25:10.408Z,27.43
2023-09-27T08:27:37.917Z,27.08
2023-09-27T08:30:07.376Z,26.96
2023-09-27T08:32:35.775Z,27.21
2023-09-27T08:35:03.705Z,27.45
2023-09-27T08:37:30.385Z,27.83
2023-09-27T08:39:57.306Z,27.23
2023-09-27T08:42:25.302Z,27.73
2023-09-27T08:44:53.889Z,28.19
2023-09-27T08:47:21.514Z,28.05
2023-09-27T08:49:51.061Z,27.93
2023-09-27T08:52:18.654Z,27.50
2023-09-27T08:54:45.268Z,28.29
2023-09-27T08:57:12.985Z,28.15
2023-09-27T08:59:40.367Z,27.35
2023-09-27T09:02:07.885Z,28.10
2023-09-27T09:04:34.587Z,28.56
2023-09-27T09:07:03.029Z,28.83
2023-09-27T09:09:31.684Z,28.51
2023-09-27T09:12:01.857Z,27.19
2023-09-27T09:14:56.205Z,28.01
2023-09-27T09:17:35.338Z,28.22
2023-09-27T09:20:19.124Z,26.82
2023-09-27T09:22:46.809Z,24.75
2023-09-27T09:25:13.393Z,23.90
2023-09-27T09:27:41.244Z,23.68
2023-09-27T09:30:12.582Z,24.19
2023-09-27T09:32:51.507Z,23.66
2023-09-27T09:35:33.571Z,24.44
2023-09-27T09:38:02.676Z,24.14
2023-09-27T09:40:31.047Z,23.69
2023-09-27T09:43:00.340Z,24.58
2023-09-27T09:45:28.146Z,24.30
2023-09-27T09:47:55.058Z,23.95
2023-09-27T09:50:21.921Z,24.09
2023-09-27T09:52:59.681Z,23.19
2023-09-27T09:55:45.607Z,23.28
2023-09-27T09:58:36.007Z,21.77
2023-09-27T10:01:04.582Z,21.48
2023-09-27T10:03:35.370Z,21.51
2023-09-27T10:06:06.358Z,20.48
2023-09-27T10:08:39.674Z,20.42
2023-09-27T10:11:06.627Z,21.14
2023-09-27T10:13:36.450Z,20.22
2023-09-27T10:16:07.129Z,20.94
2023-09-27T10:18:37.764Z,21.26
2023-09-27T10:21:04.466Z,22.88
2023-09-27T10:23:36.298Z,23.13
2023-09-27T10:26:26.409Z,22.71
2023-09-27T10:29:05.814Z,23.48
2023-09-27T10:31:34.367Z,24.84
2023-09-27T10:34:01.111Z,24.52
2023-09-27T10:36:29.724Z,25.02
2023-09-27T10:38:56.417Z,26.35
2023-09-27T10:41:43.632Z,27.89
2023-09-27T10:44:10.424Z,28.36
2023-09-27T10:46:49.861Z,28.12
2023-09-27T10:49:24.121Z,27.88
2023-09-27T10:51:53.472Z,27.65
2023-09-27T10:54:24.687Z,27.78
2023-09-27T10:56:54.899Z,27.82
2023-09-27T10:59:26.761Z,27.45
2023-09-27T11:01:54.643Z,26.43
2023-09-27T11:04:25.419Z,25.34
2023-09-27T11:06:53.299Z,25.09
2023-09-27T11:09:20.807Z,25.52
2023-09-27T11:11:51.678Z,22.49
2023-09-27T11:14:35.147Z,19.87
2023-09-27T11:17:16.789Z,21.13
2023-09-27T11:19:43.613Z,20.99
2023-09-27T11:22:10.937Z,20.95
2023-09-27T11:24:41.786Z,19.95
2023-09-27T11:27:09.370Z,19.16
2023-09-27T11:29:36.759Z,18.83
2023-09-27T11:32:03.589Z,18.42
2023-09-27T11:34:31.355Z,17.64
2023-09-27T11:37:03.993Z,16.44
2023-09-27T11:39:49.553Z,16.41
2023-09-27T11:42:24.408Z,15.62
2023-09-27T11:45:05.415Z,15.56
2023-09-27T11:47:35.623Z,12.77
2023-09-27T11:50:02.498Z,12.81
2023-09-27T11:52:29.125Z,12.63
2023-09-27T11:54:55.739Z,12.91
2023-09-27T11:57:22.353Z,12.44
2023-09-27T11:59:49.059Z,12.03
2023-09-27T12:02:28.102Z,13.20
2023-09-27T12:04:59.242Z,10.77
2023-09-27T12:07:26.456Z,10.54
2023-09-27T12:09:53.400Z,11.06
2023-09-27T12:12:20.055Z,9.76
2023-09-27T12:14:46.623Z,9.68
2023-09-27T12:17:13.882Z,8.85
2023-09-27T12:19:41.076Z,9.55
2023-09-27T12:22:07.717Z,9.00
2023-09-27T12:24:34.370Z,9.31
2023-09-27T12:27:00.968Z,9.50
2023-09-27T12:29:28.058Z,9.57
2023-09-27T12:31:54.769Z,9.70
2023-09-27T12:34:21.493Z,9.49
2023-09-27T12:36:48.796Z,9.25
2023-09-27T12:39:15.994Z,9.18
2023-09-27T12:41:42.942Z,9.46
2023-09-27T12:44:13.653Z,9.40
2023-09-27T12:46:45.938Z,8.49
2023-09-27T12:49:13.035Z,8.18
2023-09-27T12:51:48.830Z,8.13
2023-09-27T12:54:16.266Z,8.96
2023-09-27T12:56:43.787Z,9.20
2023-09-27T12:59:10.521Z,9.15
2023-09-27T13:01:37.683Z,9.27
2023-09-27T13:04:06.952Z,8.45
2023-09-27T13:06:33.854Z,9.16
2023-09-27T13:09:00.529Z,9.73
2023-09-27T13:11:27.181Z,9.86
2023-09-27T13:13:53.789Z,10.23
2023-09-27T13:16:20.438Z,10.44
2023-09-27T13:18:49.551Z,9.72
2023-09-27T13:21:17.018Z,9.80
2023-09-27T13:23:43.699Z,9.73
2023-09-27T13:26:10.426Z,8.80
2023-09-27T13:28:37.059Z,9.31
2023-09-27T13:31:03.688Z,9.08
2023-09-27T13:33:30.454Z,8.82
2023-09-27T13:36:00.994Z,8.60
2023-09-27T13:38:27.896Z,8.67
2023-09-27T13:40:54.551Z,7.64
2023-09-27T13:43:21.417Z,8.02
2023-09-27T13:45:48.483Z,8.61
2023-09-27T13:48:15.325Z,8.33
2023-09-27T13:50:42.037Z,8.02
2023-09-27T13:53:08.799Z,8.32
2023-09-27T13:55:35.506Z,8.46
2023-09-27T13:58:02.144Z,8.59
2023-09-27T14:00:29.218Z,8.23
2023-09-27T14:02:56.385Z,8.40
2023-09-27T14:05:23.221Z,8.71
2023-09-27T14:07:51.101Z,9.55
2023-09-27T14:10:18.248Z,8.76
2023-09-27T14:12:44.820Z,9.34
2023-09-27T14:15:13.066Z,10.08
2023-09-27T14:17:41.370Z,9.91
2023-09-27T14:20:08.441Z,10.49
2023-09-27T14:22:35.566Z,10.19
2023-09-27T14:25:02.486Z,10.61
2023-09-27T14:27:29.408Z,10.87
2023-09-27T14:29:56.142Z,10.89
2023-09-27T14:32:23.569Z,9.82
2023-09-27T14:37:20.289Z,11.04
2023-09-27T14:39:48.520Z,11.46
2023-09-27T14:42:15.229Z,10.59
2023-09-27T14:44:41.808Z,10.02
2023-09-27T14:47:08.697Z,10.42
2023-09-27T14:49:36.513Z,10.27
2023-09-27T14:52:03.249Z,10.01
2023-09-27T14:54:29.880Z,10.24
2023-09-27T14:56:58.457Z,10.58
2023-09-27T14:59:25.110Z,10.58
2023-09-27T15:01:54.217Z,10.50
2023-09-27T15:04:21.155Z,10.14
2023-09-27T15:06:48.044Z,10.91
2023-09-27T15:09:14.721Z,11.48
2023-09-27T15:11:41.352Z,10.47
2023-09-27T15:14:07.900Z,10.77
2023-09-27T15:16:35.532Z,11.15
2023-09-27T15:19:02.440Z,11.52
2023-09-27T15:21:29.043Z,11.33
2023-09-27T15:23:55.808Z,11.45
2023-09-27T15:26:22.644Z,11.50
2023-09-27T15:28:49.236Z,10.82
2023-09-27T15:31:15.843Z,11.63
2023-09-27T15:33:42.474Z,11.41
2023-09-27T15:36:12.979Z,10.76
2023-09-27T15:38:44.469Z,10.68
2023-09-27T15:41:20.061Z,11.44
2023-09-27T15:43:47.651Z,11.49
2023-09-27T15:46:16.576Z,11.83
2023-09-27T15:48:44.426Z,11.91
2023-09-27T15:51:12.957Z,12.24
2023-09-27T15:53:40.810Z,12.03
2023-09-27T15:56:11.458Z,11.93
2023-09-27T15:58:39.609Z,12.39
2023-09-27T16:01:07.940Z,12.39
2023-09-27T16:03:35.856Z,12.68
2023-09-27T16:06:04.961Z,13.26
2023-09-27T16:08:32.101Z,13.53
2023-09-27T16:10:59.176Z,12.99
2023-09-27T16:13:26.281Z,13.19
2023-09-27T16:15:53.323Z,13.55
2023-09-27T16:18:20.926Z,12.98
2023-09-27T16:20:50.456Z,13.02
2023-09-27T16:23:17.521Z,13.01
2023-09-27T16:25:47.520Z,12.91
2023-09-27T16:28:14.400Z,12.66
2023-09-27T16:30:41.992Z,13.36
2023-09-27T16:33:10.914Z,13.33
2023-09-27T16:35:38.771Z,13.75
2023-09-27T16:38:05.507Z,13.90
2023-09-27T16:40:32.443Z,13.54
2023-09-27T16:42:59.856Z,13.66
2023-09-27T16:45:27.832Z,12.52
2023-09-27T16:47:55.379Z,12.71
2023-09-27T16:50:22.057Z,12.95
2023-09-27T16:52:49.438Z,13.48
2023-09-27T16:55:16.590Z,13.45
2023-09-27T16:57:43.271Z,13.41
2023-09-27T17:00:13.274Z,13.17
2023-09-27T17:02:41.226Z,13.68
2023-09-27T17:05:08.678Z,12.86
2023-09-27T17:07:36.615Z,13.97
2023-09-27T17:10:05.499Z,13.96
2023-09-27T17:12:32.994Z,14.64
2023-09-27T17:14:59.840Z,14.37
2023-09-27T17:17:26.928Z,14.55
2023-09-27T17:19:54.772Z,14.20
2023-09-27T17:22:21.554Z,14.51
2023-09-27T17:24:49.299Z,14.44
2023-09-27T17:27:17.904Z,14.76
2023-09-27T17:29:44.626Z,14.77
2023-09-27T17:32:11.379Z,15.33
2023-09-27T17:34:38.070Z,14.69
2023-09-27T17:37:05.354Z,15.04
2023-09-27T17:39:32.139Z,15.29
2023-09-27T17:42:00.318Z,15.38
2023-09-27T17:44:27.301Z,15.47
2023-09-27T17:46:59.920Z,15.46
2023-09-27T17:49:27.355Z,15.14
2023-09-27T17:51:56.791Z,15.50
2023-09-27T17:54:24.468Z,15.37
2023-09-27T17:56:54.228Z,15.35
2023-09-27T17:59:20.926Z,15.30
2023-09-27T18:01:48.381Z,15.03
2023-09-27T18:04:15.160Z,15.46
2023-09-27T18:06:41.792Z,15.31
2023-09-27T18:09:08.561Z,15.24
2023-09-27T18:11:35.180Z,15.12
2023-09-27T18:14:02.015Z,15.27
2023-09-27T18:16:28.986Z,15.78
2023-09-27T18:18:55.961Z,16.08
2023-09-27T18:21:24.663Z,16.01
2023-09-27T18:23:51.874Z,16.27
2023-09-27T18:26:18.831Z,16.43
2023-09-27T18:28:45.916Z,16.31
2023-09-27T18:31:12.924Z,16.51
2023-09-27T18:33:39.714Z,16.73
2023-09-27T18:36:06.967Z,16.79
2023-09-27T18:38:34.081Z,16.53
2023-09-27T18:41:00.756Z,17.78
2023-09-27T18:43:27.462Z,17.96
2023-09-27T18:45:54.276Z,18.03
2023-09-27T18:48:21.346Z,18.06
2023-09-27T18:50:51.379Z,17.70
2023-09-27T18:53:18.873Z,18.05
2023-09-27T18:55:45.626Z,17.89
2023-09-27T18:58:14.718Z,17.85
2023-09-27T19:00:44.945Z,18.11
2023-09-27T19:03:13.701Z,17.90
2023-09-27T19:05:40.902Z,18.59
2023-09-27T19:08:07.622Z,18.57
2023-09-27T19:10:34.493Z,18.93
2023-09-27T19:13:01.331Z,19.11
2023-09-27T19:15:28.015Z,18.27
2023-09-27T19:17:57.856Z,18.42
2023-09-27T19:20:25.768Z,19.53
2023-09-27T19:22:54.086Z,19.31
2023-09-27T19:25:21.645Z,18.71
2023-09-27T19:27:49.228Z,18.83
2023-09-27T19:30:19.549Z,18.93
2023-09-27T19:32:46.477Z,18.94
2023-09-27T19:35:15.267Z,18.39
2023-09-27T19:37:43.166Z,18.30
2023-09-27T19:40:13.780Z,18.09
2023-09-27T19:42:43.751Z,18.50
2023-09-27T19:45:11.308Z,18.88
2023-09-27T19:47:38.143Z,18.72
2023-09-27T19:50:10.221Z,18.06
2023-09-27T19:52:38.831Z,18.34
2023-09-27T19:55:11.911Z,18.24
2023-09-27T19:57:38.661Z,18.72
2023-09-27T20:00:11.871Z,18.63
2023-09-27T20:02:45.483Z,18.77
2023-09-27T20:05:12.420Z,19.65
2023-09-27T20:07:40.585Z,19.67
2023-09-27T20:10:08.245Z,19.82
2023-09-27T20:12:35.156Z,19.63
2023-09-27T20:15:01.893Z,19.70
2023-09-27T20:17:28.641Z,20.64
2023-09-27T20:19:55.569Z,19.92
2023-09-27T20:22:22.437Z,20.43
2023-09-27T20:24:49.147Z,20.52
2023-09-27T20:27:16.348Z,21.70
2023-09-27T20:29:43.206Z,21.77
2023-09-27T20:32:10.023Z,21.71
2023-09-27T20:34:37.083Z,21.99
2023-09-27T20:37:03.769Z,22.17
2023-09-27T20:39:30.513Z,22.72
2023-09-27T20:41:58.000Z,23.31
2023-09-27T20:44:26.011Z,23.30
2023-09-27T20:46:52.686Z,23.67
2023-09-27T20:49:19.296Z,23.20
2023-09-27T20:51:46.079Z,22.49
2023-09-27T20:54:12.775Z,22.84
2023-09-27T20:56:39.515Z,22.15
2023-09-27T20:59:08.944Z,22.35
2023-09-27T21:01:42.188Z,22.11
2023-09-27T21:04:09.071Z,22.26
2023-09-27T21:06:35.852Z,21.72
2023-09-27T21:09:04.271Z,21.46
2023-09-27T21:11:31.436Z,21.58
2023-09-27T21:14:00.522Z,21.90
2023-09-27T21:16:30.323Z,21.89
2023-09-27T21:18:57.844Z,21.63
2023-09-27T21:21:24.956Z,21.83
2023-09-27T21:23:52.946Z,21.14
2023-09-27T21:26:20.865Z,20.28
2023-09-27T21:28:48.088Z,20.41
2023-09-27T21:31:15.011Z,19.97
2023-09-27T21:33:43.140Z,19.63
2023-09-27T21:36:10.208Z,19.30
2023-09-27T21:38:37.363Z,18.69
2023-09-27T21:41:04.722Z,18.48
2023-09-27T21:43:33.501Z,18.28
2023-09-27T21:46:01.576Z,17.85
2023-09-27T21:48:28.365Z,16.23
2023-09-27T21:50:55.038Z,15.10
2023-09-27T21:53:21.810Z,14.30
2023-09-27T21:55:48.490Z,13.09
2023-09-27T21:58:15.207Z,12.83
2023-09-27T22:00:42.841Z,13.32
2023-09-27T22:03:12.658Z,12.84
2023-09-27T22:05:39.699Z,12.85
2023-09-27T22:08:06.548Z,12.75
2023-09-27T22:10:35.909Z,13.21
2023-09-27T22:13:22.158Z,13.05
2023-09-27T22:16:11.337Z,12.54
2023-09-27T22:18:39.183Z,11.77
2023-09-27T22:21:18.447Z,12.41
2023-09-27T22:23:47.082Z,12.40
2023-09-27T22:26:18.293Z,12.12
2023-09-27T22:28:46.934Z,12.25
2023-09-27T22:31:15.391Z,12.79
2023-09-27T22:33:49.845Z,12.64
2023-09-27T22:36:16.496Z,12.55
2023-09-27T22:38:43.669Z,12.68
2023-09-27T22:41:17.018Z,12.88
2023-09-27T22:43:45.207Z,12.93
2023-09-27T22:46:12.162Z,13.63
2023-09-27T22:48:38.870Z,13.31
2023-09-27T22:51:08.996Z,12.86
2023-09-27T22:53:36.832Z,12.55
2023-09-27T22:56:05.946Z,13.11
2023-09-27T22:58:34.799Z,13.08
2023-09-27T23:01:21.680Z,12.57
2023-09-27T23:03:49.004Z,12.53
2023-09-27T23:06:21.664Z,12.38
2023-09-27T23:08:50.430Z,12.43
2023-09-27T23:11:20.466Z,11.94
2023-09-27T23:13:58.720Z,12.04
2023-09-27T23:16:27.940Z,11.74
2023-09-27T23:19:05.296Z,11.78
2023-09-27T23:21:33.318Z,11.71
2023-09-27T23:24:21.703Z,10.71
2023-09-27T23:27:00.680Z,10.54
2023-09-27T23:29:30.734Z,10.20
2023-09-27T23:32:04.675Z,10.43
2023-09-27T23:34:34.689Z,10.62
2023-09-27T23:37:15.681Z,10.15
2023-09-27T23:39:43.983Z,10.08
2023-09-27T23:42:26.736Z,10.20
2023-09-27T23:44:56.278Z,9.88
2023-09-27T23:47:24.948Z,10.23
2023-09-27T23:50:02.043Z,9.86
2023-09-27T23:52:29.596Z,9.52
2023-09-27T23:55:02.908Z,9.35
2023-09-27T23:57:33.029Z,9.11
